Clayton, New Mexico
Current Conditions -  °F | °C
As of 2:55 PM on Monday 26 Jan 2015 (Local Time) from KCAO Reporting Station
Clear Clear  
Wind Chill: 66°   Ceiling: Unl
Heat Index: 66°   Visibility: 10mi
Dew Point: 29°   Wind: 8mph
Humidity: 25%   Direction: 330°NNW
Pressure: 30.26"   Gusts: NA
Location:  36.45°N, 103.18°W
Report Text: KCAO 262155Z AUTO 33007KT 10SM CLR 19/M02 A3026 RMK AO2 SLP213 T01891017
Loading
Personal Weather Stations






























Interactive Weather Map New forecast layout! Learn more

10-Day Weather Forecast

Advertisements
Track Severe Weather on mobile